Hauptseite
METAR-TAF:

METAR-TAF

Flughäfen :

Flughafen Kiel

Kiel, Deutschland

Breite: 54-23N, Länge: 010-10E, Höhe: 31 m

Beobachtung

Neuester Wetterbericht von vor 18 Minuten, um 13:20 UTC
Wind 8 kt aus Ost/Nordost, variierte zwischen Nord/Nordost und Ost
Temperatur 26°C
Luftfeuchtigkeit 42%
Luftdruck 1012 hPa
Sichtweite 10 km oder mehr
Aufgelockert bewölkt in der Höhe von 4500 ft

METAR: EDHK 171320Z 06008KT 030V090 9999 SCT045 26/12 Q1012

Zeit: 15:38 (13:38 UTC)

Prognose

Neuester Wetterbericht von vor 2 Stunden und 38 Minuten, um 11:00 UTC
Gültige Prognose vom 17 um 12 UTC bis 17 um 18 UTC
Wind 8 kt aus Nordost
Sichtweite 10 km oder mehr
keine Wolken unter 1500 m und keine Kumulonimbus oder Gewitterwolken

TAF: EDHK 171100Z 1712/1718 05008KT CAVOK

Wetterbeobachtungen und Prognosen von mehr als 4000 Flughäfen (METAR und TAF Bericht).

Die verfügbaren Stationen werden durch gelbe und rote Markierungen auf der Karte dargestellt.

Führen Sie die Maus auf sie, um den Namen der Station zu sehen.

Darauf klicken, um die Beobachtung von Wetterbeobachtungen und Prognosen zu sehen.

Um die Karte zu ändern : klicken Sie auf den grünen Tasten mit einem schwarzen Kreuz Zum Vergrößern, auf den grünen Button mit einem Gedankenstrich zu verkleinern, oder auf die grünen Pfeile für benachbarte Karten.


METAR-TAF: